Time;durP1;ratioP1;P1;durP2;ratioP2;P2;SDS_P1;SDS_P2;PMS_P1;PMS_P2;Temp;Humidity;BMP_temperature;BMP_pressure;BME280_temperature;BME280_humidity;BME280_pressure;Samples;Min_cycle;Max_cycle;Signal;HPM_P1;HPM_P2
2022/03/31 00:03:18;;;;;;;6.72;4.30;;;;;;;;;;10370177;28;20038;-42
2022/03/31 00:08:20;;;;;;;8.57;3.90;;;;;;;;;;10370224;28;20060;-42
2022/03/31 00:13:24;;;;;;;8.63;3.95;;;;;;;;;;10369389;28;20072;-42
2022/03/31 00:18:28;;;;;;;9.05;4.40;;;;;;;;;;10368747;28;20277;-42
2022/03/31 00:23:29;;;;;;;6.20;3.70;;;;;;;;;;10369656;28;20092;-45
2022/03/31 00:28:30;;;;;;;6.72;3.67;;;;;;;;;;10369174;28;20076;-46
2022/03/31 00:33:30;;;;;;;8.27;3.80;;;;;;;;;;10368940;28;20121;-69
2022/03/31 00:38:31;;;;;;;7.38;3.45;;;;;;;;;;10368877;28;20034;-69
2022/03/31 00:43:31;;;;;;;8.80;3.70;;;;;;;;;;10368551;28;20042;-69
2022/03/31 00:48:32;;;;;;;6.72;4.25;;;;;;;;;;10368473;28;20049;-70
2022/03/31 00:53:32;;;;;;;11.50;4.50;;;;;;;;;;10368422;28;20026;-69
2022/03/31 00:58:34;;;;;;;6.57;3.55;;;;;;;;;;10368209;28;20034;-72
2022/03/31 01:03:35;;;;;;;5.88;3.95;;;;;;;;;;10367927;28;20099;-60
2022/03/31 01:08:36;;;;;;;7.90;3.90;;;;;;;;;;10368644;28;20343;-65
2022/03/31 01:13:37;;;;;;;9.50;4.10;;;;;;;;;;10367986;28;20105;-43
2022/03/31 01:18:37;;;;;;;6.20;3.78;;;;;;;;;;10367001;28;20030;-43
2022/03/31 01:23:38;;;;;;;6.85;3.78;;;;;;;;;;10367400;28;20438;-50
2022/03/31 01:28:43;;;;;;;9.43;4.07;;;;;;;;;;10367460;28;20057;-43
2022/03/31 01:33:44;;;;;;;8.23;3.65;;;;;;;;;;10367883;28;20022;-50
2022/03/31 01:38:46;;;;;;;7.35;4.05;;;;;;;;;;10367560;28;20057;-54
2022/03/31 01:43:47;;;;;;;5.22;3.60;;;;;;;;;;10367370;28;20026;-44
2022/03/31 01:48:48;;;;;;;8.88;3.58;;;;;;;;;;10366590;28;20512;-43
2022/03/31 01:53:48;;;;;;;6.97;3.95;;;;;;;;;;10367030;28;20029;-49
2022/03/31 01:58:49;;;;;;;3.88;3.35;;;;;;;;;;10366935;28;20358;-56
2022/03/31 02:03:49;;;;;;;4.80;3.42;;;;;;;;;;10366930;28;20033;-44
2022/03/31 02:08:50;;;;;;;5.93;3.15;;;;;;;;;;10366567;28;20042;-42
2022/03/31 02:13:53;;;;;;;6.25;3.17;;;;;;;;;;10366700;28;20117;-43
2022/03/31 02:18:53;;;;;;;6.07;3.00;;;;;;;;;;10365738;28;20065;-43
2022/03/31 02:23:54;;;;;;;7.18;3.50;;;;;;;;;;10366479;28;20453;-43
2022/03/31 02:28:55;;;;;;;6.03;3.20;;;;;;;;;;10366129;28;20389;-44
2022/03/31 02:33:56;;;;;;;8.05;3.40;;;;;;;;;;10374369;28;20041;-43
2022/03/31 02:38:56;;;;;;;8.15;3.42;;;;;;;;;;10373427;28;20068;-43
2022/03/31 02:43:57;;;;;;;5.47;3.28;;;;;;;;;;10373783;28;20109;-43
2022/03/31 02:48:59;;;;;;;5.35;3.50;;;;;;;;;;10372867;28;20026;-43
2022/03/31 02:59:19;;;;;;;5.13;3.42;;;;;;;;;;10373247;28;20025;-43
2022/03/31 03:04:19;;;;;;;5.50;3.65;;;;;;;;;;10372542;28;20026;-44
2022/03/31 03:09:20;;;;;;;4.72;3.40;;;;;;;;;;10372381;28;20037;-43
2022/03/31 03:14:22;;;;;;;7.25;3.58;;;;;;;;;;10371754;28;20049;-43
2022/03/31 03:19:23;;;;;;;6.32;3.30;;;;;;;;;;10372061;28;20045;-43
2022/03/31 03:24:24;;;;;;;5.50;3.47;;;;;;;;;;10371616;28;20481;-44
2022/03/31 03:29:24;;;;;;;5.03;3.72;;;;;;;;;;10371204;28;20037;-44
2022/03/31 03:34:25;;;;;;;4.30;3.35;;;;;;;;;;10371230;28;20030;-62
2022/03/31 03:39:26;;;;;;;5.63;3.22;;;;;;;;;;10370772;28;20065;-60
2022/03/31 03:44:26;;;;;;;6.88;3.10;;;;;;;;;;10370230;28;20030;-44
2022/03/31 03:49:27;;;;;;;5.45;3.53;;;;;;;;;;10370649;28;20083;-53
2022/03/31 03:54:28;;;;;;;5.32;3.10;;;;;;;;;;10370665;28;20038;-63
2022/03/31 03:59:28;;;;;;;5.90;3.47;;;;;;;;;;10370108;28;20036;-43
2022/03/31 04:04:32;;;;;;;5.70;3.30;;;;;;;;;;10370148;28;20161;-42
2022/03/31 04:09:32;;;;;;;9.60;3.75;;;;;;;;;;10369818;28;20237;-44
2022/03/31 04:14:33;;;;;;;4.45;2.95;;;;;;;;;;10369597;28;20389;-60
2022/03/31 04:19:34;;;;;;;4.43;3.13;;;;;;;;;;10369542;28;20266;-54
2022/03/31 04:24:34;;;;;;;5.40;3.28;;;;;;;;;;10369505;28;20121;-60
2022/03/31 04:29:35;;;;;;;8.15;3.38;;;;;;;;;;10369291;28;20034;-52
2022/03/31 04:34:35;;;;;;;3.90;3.10;;;;;;;;;;10368915;28;20038;-53
2022/03/31 04:39:36;;;;;;;7.07;3.38;;;;;;;;;;10368642;28;20524;-58
2022/03/31 04:44:39;;;;;;;4.65;3.38;;;;;;;;;;10368443;28;20057;-45
2022/03/31 04:49:40;;;;;;;7.13;3.67;;;;;;;;;;10368456;28;20030;-43
2022/03/31 04:54:43;;;;;;;7.90;3.90;;;;;;;;;;10367522;28;20401;-43
2022/03/31 04:59:45;;;;;;;8.52;3.80;;;;;;;;;;10368021;28;20034;-42
2022/03/31 05:04:45;;;;;;;5.90;3.40;;;;;;;;;;10367879;28;20034;-43
2022/03/31 05:09:46;;;;;;;5.40;3.28;;;;;;;;;;10367544;28;20036;-43
2022/03/31 05:14:47;;;;;;;5.13;3.42;;;;;;;;;;10367745;28;20030;-43
2022/03/31 05:19:47;;;;;;;6.38;3.58;;;;;;;;;;10367391;28;20108;-43
2022/03/31 05:24:48;;;;;;;4.60;2.85;;;;;;;;;;10367434;28;20022;-43
2022/03/31 05:29:49;;;;;;;3.92;2.80;;;;;;;;;;10367091;28;20033;-43
2022/03/31 05:34:49;;;;;;;5.35;3.13;;;;;;;;;;10365982;28;20026;-42
2022/03/31 05:39:50;;;;;;;6.22;3.72;;;;;;;;;;10365760;28;20046;-43
2022/03/31 05:44:51;;;;;;;6.32;2.97;;;;;;;;;;10366853;28;20041;-44
2022/03/31 05:49:52;;;;;;;15.32;2.88;;;;;;;;;;10366719;28;20034;-43
2022/03/31 05:54:53;;;;;;;4.95;2.72;;;;;;;;;;10363248;28;20344;-56
2022/03/31 05:59:54;;;;;;;9.27;3.10;;;;;;;;;;10362300;28;20038;-49
2022/03/31 06:04:56;;;;;;;10.88;3.75;;;;;;;;;;10366862;28;20054;-66
2022/03/31 06:09:57;;;;;;;16.90;3.20;;;;;;;;;;10374697;28;20033;-43
2022/03/31 06:14:58;;;;;;;12.40;3.60;;;;;;;;;;10372510;28;20397;-44
2022/03/31 06:19:58;;;;;;;13.10;5.28;;;;;;;;;;10373220;28;20411;-45
2022/03/31 06:24:59;;;;;;;16.95;5.43;;;;;;;;;;10369955;28;20038;-44
2022/03/31 06:30:00;;;;;;;20.10;5.25;;;;;;;;;;10365368;28;20081;-44
2022/03/31 06:35:00;;;;;;;28.02;6.30;;;;;;;;;;10371166;28;20033;-44
2022/03/31 06:40:01;;;;;;;21.17;5.43;;;;;;;;;;10372847;28;20108;-44
2022/03/31 06:45:02;;;;;;;20.52;6.75;;;;;;;;;;10372659;28;20034;-44
2022/03/31 06:50:04;;;;;;;12.73;4.68;;;;;;;;;;10371847;28;20029;-42
2022/03/31 06:55:05;;;;;;;15.45;4.43;;;;;;;;;;10371649;28;20428;-45
2022/03/31 07:00:08;;;;;;;18.38;5.65;;;;;;;;;;10372053;28;20040;-44
2022/03/31 07:05:09;;;;;;;12.52;4.97;;;;;;;;;;10371911;28;20462;-44
2022/03/31 07:10:10;;;;;;;11.55;5.20;;;;;;;;;;10372067;28;20121;-44
2022/03/31 07:15:11;;;;;;;12.45;4.32;;;;;;;;;;10371570;28;20030;-45
2022/03/31 07:20:11;;;;;;;17.60;5.22;;;;;;;;;;10370090;28;20049;-44
2022/03/31 07:25:12;;;;;;;13.55;5.47;;;;;;;;;;10369973;28;20377;-49
2022/03/31 07:30:15;;;;;;;17.52;5.00;;;;;;;;;;10369227;28;20041;-42
2022/03/31 07:35:17;;;;;;;24.45;5.95;;;;;;;;;;10370766;28;20038;-41
2022/03/31 07:40:20;;;;;;;13.95;4.95;;;;;;;;;;10368994;28;20321;-44
2022/03/31 07:45:22;;;;;;;16.48;5.38;;;;;;;;;;10367982;28;20504;-43
2022/03/31 07:50:23;;;;;;;9.60;5.20;;;;;;;;;;10368727;28;20026;-50
2022/03/31 07:55:24;;;;;;;14.90;5.20;;;;;;;;;;10369430;28;20033;-47
2022/03/31 08:00:25;;;;;;;14.75;5.38;;;;;;;;;;10368375;28;20033;-46
2022/03/31 08:05:27;;;;;;;12.35;5.05;;;;;;;;;;10367269;28;20477;-44
2022/03/31 08:10:28;;;;;;;11.23;5.00;;;;;;;;;;10366452;28;20443;-44
2022/03/31 08:15:29;;;;;;;14.00;4.90;;;;;;;;;;10340473;28;20111;-45
2022/03/31 08:20:29;;;;;;;11.43;5.22;;;;;;;;;;10362118;28;20553;-46
2022/03/31 08:25:30;;;;;;;13.98;4.85;;;;;;;;;;10376506;28;20248;-42
2022/03/31 08:30:31;;;;;;;17.23;4.82;;;;;;;;;;10368509;28;20040;-44
2022/03/31 08:35:31;;;;;;;10.77;5.47;;;;;;;;;;10392195;28;20029;-46
2022/03/31 08:40:32;;;;;;;14.02;5.10;;;;;;;;;;10379076;28;20156;-42
2022/03/31 08:45:36;;;;;;;9.90;4.70;;;;;;;;;;10368103;28;20490;-45
2022/03/31 08:50:37;;;;;;;14.07;4.93;;;;;;;;;;10368407;28;20026;-42
2022/03/31 08:55:37;;;;;;;9.88;5.53;;;;;;;;;;10368140;28;20038;-42
2022/03/31 09:00:38;;;;;;;16.02;5.57;;;;;;;;;;10367725;28;20465;-42
2022/03/31 09:05:41;;;;;;;9.38;4.95;;;;;;;;;;10368259;28;20061;-42
2022/03/31 09:10:49;;;;;;;8.90;5.13;;;;;;;;;;10372848;28;20049;-46
2022/03/31 09:15:58;;;;;;;10.93;5.93;;;;;;;;;;10350289;28;20088;-55
2022/03/31 09:21:02;;;;;;;12.55;5.32;;;;;;;;;;10367079;28;20029;-42
2022/03/31 09:26:11;;;;;;;11.57;5.03;;;;;;;;;;10352949;28;20022;-46
2022/03/31 09:31:13;;;;;;;14.75;5.25;;;;;;;;;;10365135;28;20041;-42
2022/03/31 09:36:21;;;;;;;4.55;4.10;;;;;;;;;;10374491;28;20056;-45
2022/03/31 09:41:32;;;;;;;10.48;4.97;;;;;;;;;;10412330;28;20053;-47
2022/03/31 09:46:38;;;;;;;12.43;5.18;;;;;;;;;;10391267;28;20053;-44
2022/03/31 09:51:39;;;;;;;10.80;4.55;;;;;;;;;;10375803;28;20176;-45
2022/03/31 09:56:41;;;;;;;10.82;4.47;;;;;;;;;;10385688;28;20026;-44
2022/03/31 10:01:42;;;;;;;8.43;4.68;;;;;;;;;;10374970;28;20117;-47
2022/03/31 10:06:43;;;;;;;10.27;4.22;;;;;;;;;;10382023;28;20040;-50
2022/03/31 10:11:48;;;;;;;9.52;4.60;;;;;;;;;;10415742;28;20025;-46
2022/03/31 10:17:05;;;;;;;10.30;4.57;;;;;;;;;;10371669;28;20029;-42
2022/03/31 10:27:48;;;;;;;7.82;4.18;;;;;;;;;;10398924;28;20033;-42
2022/03/31 10:33:01;;;;;;;10.13;4.47;;;;;;;;;;10378368;28;20026;-41
2022/03/31 10:38:16;;;;;;;9.18;4.03;;;;;;;;;;10373385;28;20022;-42
2022/03/31 10:43:27;;;;;;;10.73;3.78;;;;;;;;;;10395469;28;20064;-43
2022/03/31 10:48:31;;;;;;;8.55;4.10;;;;;;;;;;10392939;28;20116;-42
2022/03/31 10:53:36;;;;;;;7.53;4.50;;;;;;;;;;10373104;28;20026;-45
2022/03/31 10:58:37;;;;;;;6.82;3.53;;;;;;;;;;10373060;28;20076;-50
2022/03/31 11:03:38;;;;;;;8.45;4.20;;;;;;;;;;10372728;28;20030;-52
2022/03/31 11:08:47;;;;;;;7.53;3.88;;;;;;;;;;10372478;28;20108;-46
2022/03/31 11:13:50;;;;;;;6.80;3.90;;;;;;;;;;10372379;28;20030;-42
2022/03/31 11:18:57;;;;;;;11.27;5.30;;;;;;;;;;10372266;28;20113;-47
2022/03/31 11:23:58;;;;;;;20.40;11.07;;;;;;;;;;10372273;28;20033;-46
2022/03/31 11:29:01;;;;;;;32.63;15.70;;;;;;;;;;10371875;28;20390;-46
2022/03/31 11:34:02;;;;;;;39.35;20.02;;;;;;;;;;10371279;28;20394;-48
2022/03/31 11:39:02;;;;;;;43.50;19.80;;;;;;;;;;10370821;28;20049;-42
2022/03/31 11:44:04;;;;;;;47.35;21.55;;;;;;;;;;10370245;28;20501;-44
2022/03/31 11:49:17;;;;;;;40.63;20.13;;;;;;;;;;10369886;28;20045;-53
2022/03/31 11:54:19;;;;;;;38.92;19.10;;;;;;;;;;10370123;28;20080;-45
2022/03/31 11:59:22;;;;;;;37.00;18.58;;;;;;;;;;10370348;28;20485;-44
2022/03/31 12:04:29;;;;;;;31.42;16.45;;;;;;;;;;10369341;28;20022;-44
2022/03/31 12:09:30;;;;;;;29.65;15.13;;;;;;;;;;10370109;28;20235;-43
2022/03/31 12:14:33;;;;;;;37.10;16.27;;;;;;;;;;10369757;28;20038;-43
2022/03/31 12:19:40;;;;;;;29.27;14.10;;;;;;;;;;10352263;28;20037;-42
2022/03/31 12:24:52;;;;;;;25.85;12.90;;;;;;;;;;10369198;28;20476;-46
2022/03/31 12:30:04;;;;;;;27.92;12.90;;;;;;;;;;10369591;28;20030;-44
2022/03/31 12:35:06;;;;;;;21.33;11.30;;;;;;;;;;10366031;28;20053;-43
2022/03/31 12:40:10;;;;;;;21.75;11.38;;;;;;;;;;10366781;28;20053;-44
2022/03/31 12:45:15;;;;;;;17.63;10.07;;;;;;;;;;10365503;28;20041;-42
2022/03/31 12:50:25;;;;;;;17.52;9.32;;;;;;;;;;10367478;28;20040;-46
2022/03/31 12:55:33;;;;;;;20.02;9.93;;;;;;;;;;10366230;28;20032;-45
2022/03/31 13:00:36;;;;;;;20.15;9.43;;;;;;;;;;10366113;28;20457;-46
2022/03/31 13:05:36;;;;;;;17.98;8.60;;;;;;;;;;10363178;28;20032;-45
2022/03/31 13:10:38;;;;;;;13.77;8.15;;;;;;;;;;10365453;28;20034;-48
2022/03/31 13:15:41;;;;;;;14.40;7.30;;;;;;;;;;10364719;28;20557;-44
2022/03/31 13:20:42;;;;;;;17.15;6.82;;;;;;;;;;10365560;28;20026;-46
2022/03/31 13:25:44;;;;;;;16.30;7.55;;;;;;;;;;10366048;28;20393;-48
2022/03/31 13:30:44;;;;;;;15.20;7.40;;;;;;;;;;10363735;28;20495;-45
2022/03/31 13:35:45;;;;;;;19.73;7.32;;;;;;;;;;10366737;28;20062;-43
2022/03/31 13:40:45;;;;;;;13.90;6.07;;;;;;;;;;10362888;28;20270;-42
2022/03/31 13:45:46;;;;;;;14.18;6.78;;;;;;;;;;10366624;28;20461;-46
2022/03/31 13:50:48;;;;;;;11.77;6.03;;;;;;;;;;10366865;28;20433;-47
2022/03/31 13:55:48;;;;;;;13.40;5.88;;;;;;;;;;10366799;28;20021;-42
2022/03/31 14:01:08;;;;;;;16.38;6.43;;;;;;;;;;10352892;28;20462;-45
2022/03/31 14:06:13;;;;;;;16.95;5.20;;;;;;;;;;10366558;28;20109;-47
2022/03/31 14:11:13;;;;;;;11.60;5.40;;;;;;;;;;10366005;28;20069;-46
2022/03/31 14:16:14;;;;;;;8.43;5.00;;;;;;;;;;10364004;28;20046;-45
2022/03/31 14:21:15;;;;;;;9.05;5.30;;;;;;;;;;10365574;28;20048;-44
2022/03/31 14:26:16;;;;;;;9.80;5.20;;;;;;;;;;10368470;28;20030;-41
2022/03/31 14:31:23;;;;;;;9.70;4.93;;;;;;;;;;10373195;28;20551;-44
2022/03/31 14:36:25;;;;;;;11.38;5.00;;;;;;;;;;10369419;28;20556;-45
2022/03/31 14:41:26;;;;;;;7.55;4.47;;;;;;;;;;10372057;28;20042;-49
2022/03/31 14:46:27;;;;;;;7.72;4.70;;;;;;;;;;10371125;28;20385;-47
2022/03/31 14:51:28;;;;;;;8.98;5.10;;;;;;;;;;10370404;28;20025;-47
2022/03/31 14:56:29;;;;;;;9.13;4.38;;;;;;;;;;10369188;28;20026;-44
2022/03/31 15:01:31;;;;;;;10.57;4.47;;;;;;;;;;10370673;28;20026;-49
2022/03/31 15:06:32;;;;;;;11.98;4.18;;;;;;;;;;10372014;28;20030;-42
2022/03/31 15:16:52;;;;;;;;;;;;;;;;;;10368805;28;20022;-51
2022/03/31 15:21:53;;;;;;;;;;;;;;;;;;10370543;28;19960;-47
2022/03/31 15:26:53;;;;;;;;;;;;;;;;;;10369583;28;19921;-53
2022/03/31 15:31:54;;;;;;;;;;;;;;;;;;10368715;28;19918;-45
2022/03/31 15:36:55;;;;;;;;;;;;;;;;;;10367609;28;20029;-45
2022/03/31 15:41:56;;;;;;;;;;;;;;;;;;10368862;28;19973;-45
2022/03/31 15:46:56;;;;;;;;;;;;;;;;;;10369798;28;19956;-49
2022/03/31 15:51:57;;;;;;;;;;;;;;;;;;10369032;28;20573;-46
2022/03/31 15:56:58;;;;;;;;;;;;;;;;;;10370460;28;19964;-47
2022/03/31 16:01:59;;;;;;;;;;;;;;;;;;10368968;28;19917;-45
2022/03/31 16:07:00;;;;;;;;;;;;;;;;;;10369173;28;20297;-46
2022/03/31 16:12:02;;;;;;;;;;;;;;;;;;10369758;28;19913;-48
2022/03/31 16:17:02;;;;;;;;;;;;;;;;;;10369438;28;20059;-47
2022/03/31 16:22:03;;;;;;;;;;;;;;;;;;10368083;28;19967;-47
2022/03/31 16:27:03;;;;;;;;;;;;;;;;;;10369077;28;19921;-45
2022/03/31 16:32:04;;;;;;;;;;;;;;;;;;10369376;28;20367;-44
2022/03/31 16:37:05;;;;;;;;;;;;;;;;;;10369718;28;19953;-44
2022/03/31 16:42:06;;;;;;;;;;;;;;;;;;10369345;28;19925;-44
2022/03/31 16:47:06;;;;;;;;;;;;;;;;;;10368702;28;20376;-44
2022/03/31 16:52:07;;;;;;;;;;;;;;;;;;10367145;28;19924;-49
2022/03/31 16:57:08;;;;;;;;;;;;;;;;;;10367157;28;20116;-47
2022/03/31 17:02:09;;;;;;;;;;;;;;;;;;10367136;28;19921;-46
2022/03/31 17:07:11;;;;;;;;;;;;;;;;;;10366128;28;20266;-45
2022/03/31 17:12:11;;;;;;;;;;;;;;;;;;10366596;28;19917;-44
2022/03/31 17:17:12;;;;;;;;;;;;;;;;;;10367092;28;19913;-51
2022/03/31 17:22:12;;;;;;;;;;;;;;;;;;10367442;28;19933;-45
2022/03/31 17:27:13;;;;;;;;;;;;;;;;;;10366176;28;19918;-48
2022/03/31 17:32:14;;;;;;;;;;;;;;;;;;10368188;28;19917;-45
2022/03/31 17:37:15;;;;;;;;;;;;;;;;;;10367730;28;20268;-48
2022/03/31 17:42:15;;;;;;;;;;;;;;;;;;10367439;28;19923;-45
2022/03/31 17:47:16;;;;;;;;;;;;;;;;;;10366294;28;19913;-45
2022/03/31 17:52:16;;;;;;;;;;;;;;;;;;10367796;28;19920;-44
2022/03/31 17:57:18;;;;;;;;;;;;;;;;;;10365193;28;19913;-45
2022/03/31 18:02:19;;;;;;;;;;;;;;;;;;10370235;28;20050;-47
2022/03/31 18:07:19;;;;;;;;;;;;;;;;;;10374899;28;20358;-46
2022/03/31 18:12:20;;;;;;;;;;;;;;;;;;10375538;28;20012;-49
2022/03/31 18:17:20;;;;;;;;;;;;;;;;;;10374621;28;20357;-46
2022/03/31 18:22:20;;;;;;;;;;;;;;;;;;10374759;28;19914;-46
2022/03/31 18:27:21;;;;;;;;;;;;;;;;;;10374889;28;19913;-47
2022/03/31 18:37:41;;;;;;;;;;;;;;;;;;10375130;28;20080;-47
2022/03/31 18:42:41;;;;;;;;;;;;;;;;;;10373091;28;20453;-49
2022/03/31 18:47:41;;;;;;;;;;;;;;;;;;10371665;28;20076;-45
2022/03/31 18:52:42;;;;;;;;;;;;;;;;;;10373931;28;19917;-46
2022/03/31 18:57:42;;;;;;;;;;;;;;;;;;10373387;28;19921;-46
2022/03/31 19:02:47;;;;;;;;;;;;;;;;;;10373319;28;19924;-45
2022/03/31 19:07:48;;;;;;;;;;;;;;;;;;10373421;28;19914;-45
2022/03/31 19:12:50;;;;;;;;;;;;;;;;;;10371623;28;19928;-47
2022/03/31 19:17:51;;;;;;;;;;;;;;;;;;10372698;28;19917;-45
2022/03/31 19:22:52;;;;;;;;;;;;;;;;;;10366540;28;19932;-46
2022/03/31 19:27:52;;;;;;;;;;;;;;;;;;10371106;28;20012;-69
2022/03/31 19:32:52;;;;;;;;;;;;;;;;;;10371419;28;20012;-45
2022/03/31 19:37:53;;;;;;;;;;;;;;;;;;10369407;28;20391;-44
2022/03/31 19:42:53;;;;;;;;;;;;;;;;;;10366634;28;19925;-44
2022/03/31 19:47:54;;;;;;;;;;;;;;;;;;10369219;28;20005;-44
2022/03/31 19:52:55;;;;;;;;;;;;;;;;;;10369000;28;19924;-44
2022/03/31 19:57:55;;;;;;;;;;;;;;;;;;10368754;28;19918;-44
2022/03/31 20:02:56;;;;;;;;;;;;;;;;;;10368147;28;20244;-44
2022/03/31 20:07:59;;;;;;;;;;;;;;;;;;10367679;28;19917;-44
2022/03/31 20:13:04;;;;;;;;;;;;;;;;;;10367986;28;19968;-44
2022/03/31 20:18:04;;;;;;;;;;;;;;;;;;10368150;28;20292;-44
2022/03/31 20:23:05;;;;;;;;;;;;;;;;;;10366913;28;20171;-44
2022/03/31 20:28:05;;;;;;;;;;;;;;;;;;10367940;28;19917;-44
2022/03/31 20:33:06;;;;;;;;;;;;;;;;;;10370119;28;19913;-44
2022/03/31 20:38:06;;;;;;;;;;;;;;;;;;10370053;28;19996;-45
2022/03/31 20:43:10;;;;;;;;;;;;;;;;;;10369089;28;19925;-44
2022/03/31 20:48:11;;;;;;;;;;;;;;;;;;10369092;28;20297;-44
2022/03/31 20:53:12;;;;;;;;;;;;;;;;;;10369179;28;19921;-46
2022/03/31 20:58:13;;;;;;;;;;;;;;;;;;10368810;28;19964;-44
2022/03/31 21:03:14;;;;;;;;;;;;;;;;;;10368920;28;20297;-45
2022/03/31 21:08:14;;;;;;;;;;;;;;;;;;10364060;28;20420;-44
2022/03/31 21:13:14;;;;;;;;;;;;;;;;;;10365076;28;19928;-46
2022/03/31 21:18:15;;;;;;;;;;;;;;;;;;10366894;28;19917;-45
2022/03/31 21:23:15;;;;;;;;;;;;;;;;;;10365956;28;20015;-45
2022/03/31 21:28:18;;;;;;;;;;;;;;;;;;10366544;28;20265;-45
2022/03/31 21:33:18;;;;;;;;;;;;;;;;;;10368129;28;20008;-47
2022/03/31 21:38:20;;;;;;;;;;;;;;;;;;10367549;28;19921;-45
2022/03/31 21:43:20;;;;;;;;;;;;;;;;;;10360193;28;19922;-45
2022/03/31 21:48:21;;;;;;;;;;;;;;;;;;10363609;28;19920;-52
2022/03/31 21:53:21;;;;;;;;;;;;;;;;;;10366683;28;20312;-44
2022/03/31 21:58:21;;;;;;;;;;;;;;;;;;10367292;28;20016;-46
2022/03/31 22:03:22;;;;;;;;;;;;;;;;;;10374409;28;20360;-44
2022/03/31 22:13:52;;;;;;;;;;;;;;;;;;10367217;28;19917;-45
2022/03/31 22:18:52;;;;;;;;;;;;;;;;;;10366839;28;19948;-45
2022/03/31 22:23:53;;;;;;;;;;;;;;;;;;10365970;28;20292;-44
2022/03/31 22:28:53;;;;;;;;;;;;;;;;;;10365222;28;19918;-46
2022/03/31 22:33:56;;;;;;;;;;;;;;;;;;10366915;28;19960;-44
2022/03/31 22:38:57;;;;;;;;;;;;;;;;;;10365450;28;19971;-44
2022/03/31 22:44:00;;;;;;;;;;;;;;;;;;10363094;28;20384;-43
2022/03/31 22:49:02;;;;;;;;;;;;;;;;;;10363751;28;19917;-44
2022/03/31 22:54:04;;;;;;;;;;;;;;;;;;10372137;28;19965;-43
2022/03/31 22:59:06;;;;;;;;;;;;;;;;;;10362331;28;19948;-44
2022/03/31 23:04:06;;;;;;;;;;;;;;;;;;10371218;28;20004;-44
2022/03/31 23:09:07;;;;;;;;;;;;;;;;;;10371641;28;20007;-44
2022/03/31 23:14:08;;;;;;;;;;;;;;;;;;10370903;28;20339;-44
2022/03/31 23:19:08;;;;;;;;;;;;;;;;;;10371157;28;19964;-44
2022/03/31 23:24:09;;;;;;;;;;;;;;;;;;10370605;28;20012;-44
2022/03/31 23:29:09;;;;;;;;;;;;;;;;;;10370627;28;19920;-44
2022/03/31 23:34:10;;;;;;;;;;;;;;;;;;10370231;28;20057;-44
2022/03/31 23:39:10;;;;;;;;;;;;;;;;;;10370125;28;20005;-44
2022/03/31 23:44:11;;;;;;;;;;;;;;;;;;10371984;28;19922;-44
2022/03/31 23:49:11;;;;;;;;;;;;;;;;;;10371385;28;19976;-44
2022/03/31 23:54:12;;;;;;;;;;;;;;;;;;10371336;28;19918;-44
2022/03/31 23:59:13;;;;;;;;;;;;;;;;;;10370504;28;20364;-44
